QTR110 EGLL-OTHH
Flight info
| Callsign | QTR110 |
|---|---|
| Flight time | N/A |
| Altitude | 37000 |
| Route | DET L6 DVR L9 KONAN UL607 REMBA DCT RITAX DCT SUTAL DCT GTQ DCT BEGAR DCT TRA DCT SUXAN DCT BORMI DCT LEVDI/N0480F390 DCT INKOP DCT ARLOS DCT SALUN N705 MMA P751 DASUM Y234 FYM M872 WEJ L604 GAS G662 KSA N687 KINIB Z511 GISRA L681 ORLEK |
| Aircraft | A35K/H-SDE2E3GHIJ3J4J5LM1ORWXY/LB1D1 |
Departure
| Time | 2026-05-06 11:19 |
|---|---|
| Airport | London Heathrow Airport (EGLL) |
Arrival
| Time | N/A |
|---|---|
| Airport | Hamad International Airport (OTHH) |
| Time | Latitude | Longitude | Altitude | Speed | Heading |
|---|---|---|---|---|---|
| 2026-05-06 10:45 | 51.45909 | -0.45035 | 97 ft | 0 kts | 131° |
| 2026-05-06 11:03 | 51.45924 | -0.45061 | 91 ft | 4 kts | 131° |
| 2026-05-06 11:03 | 51.45939 | -0.45089 | 94 ft | 3 kts | 131° |
| 2026-05-06 11:04 | 51.45953 | -0.45122 | 92 ft | 4 kts | 100° |
| 2026-05-06 11:04 | 51.45950 | -0.45162 | 90 ft | 4 kts | 60° |
| 2026-05-06 11:04 | 51.45934 | -0.45195 | 91 ft | 3 kts | 42° |
| 2026-05-06 11:04 | 51.45931 | -0.45199 | 90 ft | 0 kts | 41° |
| 2026-05-06 11:08 | 51.45991 | -0.45113 | 92 ft | 14 kts | 41° |
| 2026-05-06 11:08 | 51.46070 | -0.45000 | 97 ft | 16 kts | 42° |
| 2026-05-06 11:09 | 51.46152 | -0.44887 | 97 ft | 13 kts | 29° |
| 2026-05-06 11:09 | 51.46193 | -0.44916 | 97 ft | 7 kts | 295° |
| 2026-05-06 11:09 | 51.46199 | -0.45064 | 95 ft | 19 kts | 269° |
| 2026-05-06 11:09 | 51.46199 | -0.45292 | 95 ft | 22 kts | 270° |
| 2026-05-06 11:10 | 51.46222 | -0.45488 | 96 ft | 17 kts | 316° |
| 2026-05-06 11:10 | 51.46316 | -0.45612 | 97 ft | 18 kts | 296° |
| 2026-05-06 11:10 | 51.46324 | -0.45836 | 92 ft | 23 kts | 270° |
| 2026-05-06 11:10 | 51.46323 | -0.46116 | 92 ft | 28 kts | 269° |
| 2026-05-06 11:11 | 51.46322 | -0.46450 | 95 ft | 31 kts | 270° |
| 2026-05-06 11:11 | 51.46322 | -0.46803 | 92 ft | 32 kts | 270° |
| 2026-05-06 11:11 | 51.46322 | -0.47057 | 95 ft | 17 kts | 270° |
| 2026-05-06 11:11 | 51.46321 | -0.47261 | 94 ft | 19 kts | 270° |
| 2026-05-06 11:12 | 51.46340 | -0.47481 | 96 ft | 20 kts | 271° |
| 2026-05-06 11:12 | 51.46316 | -0.47693 | 98 ft | 16 kts | 241° |
| 2026-05-06 11:12 | 51.46257 | -0.47867 | 97 ft | 19 kts | 250° |
| 2026-05-06 11:12 | 51.46251 | -0.48049 | 97 ft | 16 kts | 270° |
| 2026-05-06 11:13 | 51.46250 | -0.48249 | 94 ft | 20 kts | 270° |
| 2026-05-06 11:13 | 51.46249 | -0.48453 | 91 ft | 11 kts | 269° |
| 2026-05-06 11:13 | 51.46255 | -0.48586 | 94 ft | 14 kts | 283° |
| 2026-05-06 11:13 | 51.46289 | -0.48680 | 95 ft | 0 kts | 313° |
| 2026-05-06 11:15 | 51.46299 | -0.48696 | 96 ft | 4 kts | 317° |
| 2026-05-06 11:15 | 51.46336 | -0.48732 | 96 ft | 7 kts | 335° |
| 2026-05-06 11:16 | 51.46353 | -0.48741 | 97 ft | 0 kts | 342° |
| 2026-05-06 11:16 | 51.46354 | -0.48742 | 97 ft | 0 kts | 343° |
| 2026-05-06 11:16 | 51.46355 | -0.48742 | 97 ft | 0 kts | 343° |
| 2026-05-06 11:16 | 51.46366 | -0.48745 | 97 ft | 3 kts | 351° |
| 2026-05-06 11:17 | 51.46396 | -0.48748 | 94 ft | 7 kts | 357° |
| 2026-05-06 11:17 | 51.46456 | -0.48735 | 97 ft | 9 kts | 28° |
| 2026-05-06 11:17 | 51.46478 | -0.48642 | 93 ft | 10 kts | 86° |
| 2026-05-06 11:17 | 51.46478 | -0.48580 | 92 ft | 0 kts | 90° |
| 2026-05-06 11:18 | 51.46478 | -0.48578 | 92 ft | 1 kts | 90° |
| 2026-05-06 11:19 | 51.46479 | -0.48443 | 92 ft | 39 kts | 89° |
| 2026-05-06 11:19 | 51.46482 | -0.47611 | 94 ft | 107 kts | 90° |
| 2026-05-06 11:19 | 51.46485 | -0.46116 | 103 ft | 161 kts | 88° |
| 2026-05-06 11:19 | 51.46472 | -0.44283 | 737 ft | 162 kts | 86° |
| 2026-05-06 11:20 | 51.46395 | -0.42442 | 1378 ft | 173 kts | 95° |
| 2026-05-06 11:20 | 51.45973 | -0.40543 | 1934 ft | 188 kts | 112° |
| 2026-05-06 11:20 | 51.45346 | -0.38608 | 2295 ft | 207 kts | 115° |
| 2026-05-06 11:20 | 51.44886 | -0.37199 | 2504 ft | 221 kts | 113° |
| 2026-05-06 11:21 | 51.44056 | -0.34039 | 3060 ft | 241 kts | 107° |
| 2026-05-06 11:21 | 51.43663 | -0.32323 | 3326 ft | 252 kts | 107° |
| 2026-05-06 11:21 | 51.43065 | -0.29626 | 3988 ft | 259 kts | 106° |
| 2026-05-06 11:21 | 51.42568 | -0.26814 | 4672 ft | 264 kts | 99° |
| 2026-05-06 11:22 | 51.42167 | -0.23943 | 5332 ft | 269 kts | 98° |
| 2026-05-06 11:22 | 51.41768 | -0.20985 | 6029 ft | 276 kts | 98° |
| 2026-05-06 11:22 | 51.41353 | -0.17928 | 6697 ft | 282 kts | 99° |
| 2026-05-06 11:22 | 51.40927 | -0.14825 | 7492 ft | 284 kts | 99° |
| 2026-05-06 11:23 | 51.40509 | -0.11758 | 8316 ft | 286 kts | 100° |
| 2026-05-06 11:23 | 51.40070 | -0.08600 | 9145 ft | 289 kts | 100° |
| 2026-05-06 11:23 | 51.39633 | -0.05452 | 9899 ft | 294 kts | 100° |
| 2026-05-06 11:23 | 51.39182 | -0.02198 | 10494 ft | 305 kts | 101° |
| 2026-05-06 11:24 | 51.38709 | 0.01204 | 10875 ft | 324 kts | 101° |
| 2026-05-06 11:24 | 51.38209 | 0.04800 | 11213 ft | 342 kts | 101° |
| 2026-05-06 11:24 | 51.37674 | 0.08638 | 11555 ft | 360 kts | 101° |
| 2026-05-06 11:24 | 51.37116 | 0.12653 | 11930 ft | 375 kts | 102° |
| 2026-05-06 11:25 | 51.36539 | 0.16743 | 12486 ft | 384 kts | 102° |
| 2026-05-06 11:25 | 51.35949 | 0.20931 | 13032 ft | 392 kts | 102° |
| 2026-05-06 11:25 | 51.35341 | 0.25237 | 13743 ft | 396 kts | 102° |
| 2026-05-06 11:25 | 51.34734 | 0.29508 | 14423 ft | 397 kts | 102° |
| 2026-05-06 11:26 | 51.34110 | 0.33883 | 14964 ft | 404 kts | 102° |
| 2026-05-06 11:26 | 51.33480 | 0.38292 | 15469 ft | 409 kts | 102° |
| 2026-05-06 11:26 | 51.32848 | 0.42709 | 16194 ft | 410 kts | 102° |
| 2026-05-06 11:26 | 51.32206 | 0.47188 | 16843 ft | 414 kts | 103° |
| 2026-05-06 11:27 | 51.31563 | 0.51689 | 17336 ft | 421 kts | 103° |
| 2026-05-06 11:27 | 51.30900 | 0.56280 | 18023 ft | 422 kts | 103° |
| 2026-05-06 11:27 | 51.30241 | 0.60833 | 18692 ft | 425 kts | 103° |
| 2026-05-06 11:27 | 51.29505 | 0.65442 | 19151 ft | 431 kts | 106° |
| 2026-05-06 11:28 | 51.28667 | 0.70034 | 19752 ft | 433 kts | 107° |
| 2026-05-06 11:28 | 51.27788 | 0.74613 | 20441 ft | 432 kts | 108° |
| 2026-05-06 11:28 | 51.26889 | 0.79266 | 20975 ft | 438 kts | 108° |
| 2026-05-06 11:28 | 51.25996 | 0.83925 | 21477 ft | 443 kts | 108° |
| 2026-05-06 11:29 | 51.25113 | 0.88602 | 22175 ft | 444 kts | 108° |
| 2026-05-06 11:29 | 51.24224 | 0.93357 | 22751 ft | 447 kts | 108° |
| 2026-05-06 11:29 | 51.23341 | 0.98111 | 23321 ft | 451 kts | 108° |
| 2026-05-06 11:29 | 51.22442 | 1.02952 | 23874 ft | 454 kts | 108° |
| 2026-05-06 11:30 | 51.21539 | 1.07806 | 24437 ft | 456 kts | 108° |
| 2026-05-06 11:30 | 51.20637 | 1.12651 | 24876 ft | 460 kts | 108° |
| 2026-05-06 11:30 | 51.19725 | 1.17529 | 25372 ft | 463 kts | 108° |
| 2026-05-06 11:30 | 51.18797 | 1.22472 | 25899 ft | 465 kts | 108° |
| 2026-05-06 11:31 | 51.17855 | 1.27482 | 26395 ft | 469 kts | 108° |
| 2026-05-06 11:31 | 51.16932 | 1.32482 | 26797 ft | 474 kts | 105° |
| 2026-05-06 11:31 | 51.16297 | 1.37617 | 27329 ft | 476 kts | 98° |
| 2026-05-06 11:31 | 51.15922 | 1.42875 | 27812 ft | 480 kts | 96° |
| 2026-05-06 11:32 | 51.15626 | 1.48161 | 28325 ft | 482 kts | 95° |
| 2026-05-06 11:32 | 51.15366 | 1.53514 | 28867 ft | 482 kts | 95° |
| 2026-05-06 11:32 | 51.15123 | 1.58853 | 29255 ft | 487 kts | 95° |
| 2026-05-06 11:32 | 51.14894 | 1.63859 | 29647 ft | 489 kts | 95° |
| 2026-05-06 11:33 | 51.14641 | 1.69272 | 30068 ft | 491 kts | 95° |
| 2026-05-06 11:33 | 51.14379 | 1.74677 | 30358 ft | 494 kts | 95° |
| 2026-05-06 11:33 | 51.14110 | 1.80090 | 30912 ft | 491 kts | 95° |
| 2026-05-06 11:33 | 51.13834 | 1.85544 | 31352 ft | 490 kts | 95° |
| 2026-05-06 11:34 | 51.13558 | 1.90914 | 31796 ft | 488 kts | 95° |
| 2026-05-06 11:34 | 51.13277 | 1.96314 | 32430 ft | 483 kts | 95° |
| 2026-05-06 11:34 | 51.12999 | 2.01612 | 32854 ft | 482 kts | 95° |
| 2026-05-06 11:34 | 51.12723 | 2.06895 | 33277 ft | 481 kts | 96° |
| 2026-05-06 11:35 | 51.12438 | 2.12248 | 33681 ft | 481 kts | 95° |
| 2026-05-06 11:35 | 51.12153 | 2.17511 | 34029 ft | 480 kts | 96° |
| 2026-05-06 11:35 | 51.11863 | 2.22837 | 34331 ft | 480 kts | 96° |
| 2026-05-06 11:35 | 51.11573 | 2.28107 | 34530 ft | 482 kts | 96° |
| 2026-05-06 11:36 | 51.11279 | 2.33415 | 34799 ft | 482 kts | 96° |
| 2026-05-06 11:36 | 51.10982 | 2.38762 | 35012 ft | 484 kts | 96° |
| 2026-05-06 11:36 | 51.10685 | 2.44040 | 35255 ft | 484 kts | 96° |
| 2026-05-06 11:36 | 51.10381 | 2.49409 | 35514 ft | 485 kts | 96° |
| 2026-05-06 11:37 | 51.10079 | 2.54726 | 35653 ft | 487 kts | 96° |
| 2026-05-06 11:37 | 51.09767 | 2.60144 | 35919 ft | 487 kts | 96° |
| 2026-05-06 11:37 | 51.09288 | 2.65441 | 36122 ft | 486 kts | 104° |
| 2026-05-06 11:37 | 51.08484 | 2.70663 | 36289 ft | 487 kts | 107° |
| 2026-05-06 11:38 | 51.07586 | 2.75888 | 36539 ft | 487 kts | 107° |
| 2026-05-06 11:38 | 51.06659 | 2.81034 | 36733 ft | 488 kts | 108° |
| 2026-05-06 11:38 | 51.05697 | 2.86267 | 36881 ft | 489 kts | 108° |
| 2026-05-06 11:39 | 51.03769 | 2.96673 | 36933 ft | 495 kts | 108° |
| 2026-05-06 11:39 | 51.01843 | 3.07106 | 36923 ft | 494 kts | 108° |
| 2026-05-06 11:40 | 50.99908 | 3.17584 | 36918 ft | 494 kts | 108° |
| 2026-05-06 11:40 | 50.97960 | 3.28085 | 36903 ft | 494 kts | 108° |
| 2026-05-06 11:41 | 50.96022 | 3.38471 | 36900 ft | 493 kts | 108° |
| 2026-05-06 11:41 | 50.94064 | 3.48902 | 36894 ft | 493 kts | 108° |
| 2026-05-06 11:42 | 50.92104 | 3.59284 | 36891 ft | 493 kts | 108° |
| 2026-05-06 11:42 | 50.90125 | 3.69695 | 36892 ft | 493 kts | 108° |
| 2026-05-06 11:43 | 50.88128 | 3.80043 | 36884 ft | 493 kts | 109° |
| 2026-05-06 11:43 | 50.86113 | 3.90404 | 36886 ft | 492 kts | 109° |
| 2026-05-06 11:44 | 50.83080 | 4.05921 | 36885 ft | 492 kts | 109° |
| 2026-05-06 11:44 | 50.81042 | 4.16292 | 36883 ft | 492 kts | 109° |
| 2026-05-06 11:45 | 50.79005 | 4.26601 | 36886 ft | 492 kts | 109° |
| 2026-05-06 11:45 | 50.76966 | 4.36867 | 36881 ft | 491 kts | 109° |
| 2026-05-06 11:46 | 50.74906 | 4.47180 | 36883 ft | 491 kts | 109° |
| 2026-05-06 11:46 | 50.72852 | 4.57409 | 36882 ft | 491 kts | 109° |
| 2026-05-06 11:47 | 50.70800 | 4.67722 | 36871 ft | 491 kts | 109° |
| 2026-05-06 11:47 | 50.68814 | 4.78024 | 36878 ft | 492 kts | 109° |
| 2026-05-06 11:48 | 50.66524 | 4.88183 | 36871 ft | 489 kts | 118° |
| 2026-05-06 11:48 | 50.62674 | 4.96886 | 36877 ft | 484 kts | 135° |
| 2026-05-06 11:49 | 50.57966 | 5.04429 | 36868 ft | 484 kts | 137° |
| 2026-05-06 11:49 | 50.53121 | 5.11800 | 36853 ft | 484 kts | 138° |
| 2026-05-06 11:50 | 50.48308 | 5.19127 | 36865 ft | 486 kts | 137° |
| 2026-05-06 11:50 | 50.43470 | 5.26535 | 36861 ft | 486 kts | 137° |
| 2026-05-06 11:51 | 50.38636 | 5.33942 | 36860 ft | 486 kts | 137° |
| 2026-05-06 11:51 | 50.33796 | 5.41337 | 36856 ft | 486 kts | 137° |
| 2026-05-06 11:52 | 50.28936 | 5.48739 | 36850 ft | 486 kts | 137° |
| 2026-05-06 11:52 | 50.24085 | 5.56102 | 36850 ft | 485 kts | 138° |
| 2026-05-06 11:53 | 50.19269 | 5.63390 | 36849 ft | 483 kts | 138° |
| 2026-05-06 11:53 | 50.14438 | 5.70678 | 36840 ft | 483 kts | 138° |
| 2026-05-06 11:54 | 50.09600 | 5.77937 | 36838 ft | 483 kts | 139° |
| 2026-05-06 11:54 | 50.04231 | 5.84151 | 36832 ft | 480 kts | 149° |
| 2026-05-06 11:55 | 49.98587 | 5.89692 | 36823 ft | 479 kts | 150° |
| 2026-05-06 11:55 | 49.92940 | 5.95093 | 36824 ft | 479 kts | 150° |
| 2026-05-06 11:56 | 49.87268 | 6.00516 | 36812 ft | 478 kts | 150° |
| 2026-05-06 11:56 | 49.81610 | 6.05939 | 36807 ft | 478 kts | 150° |
| 2026-05-06 11:57 | 49.75929 | 6.11379 | 36810 ft | 479 kts | 150° |
| 2026-05-06 11:57 | 49.70295 | 6.16760 | 36810 ft | 479 kts | 150° |
| 2026-05-06 11:58 | 49.64599 | 6.22185 | 36800 ft | 479 kts | 150° |
| 2026-05-06 11:58 | 49.58967 | 6.27534 | 36800 ft | 479 kts | 150° |
| 2026-05-06 11:59 | 49.53315 | 6.32885 | 36800 ft | 477 kts | 151° |
| 2026-05-06 11:59 | 49.47640 | 6.38199 | 36803 ft | 475 kts | 153° |
| 2026-05-06 12:00 | 49.41744 | 6.42562 | 36806 ft | 473 kts | 158° |
| 2026-05-06 12:00 | 49.35999 | 6.46486 | 36795 ft | 472 kts | 158° |
| 2026-05-06 12:01 | 49.30068 | 6.50477 | 36799 ft | 472 kts | 158° |
| 2026-05-06 12:01 | 49.24081 | 6.54513 | 36803 ft | 473 kts | 158° |
| 2026-05-06 12:02 | 49.18054 | 6.58583 | 36798 ft | 472 kts | 158° |
| 2026-05-06 12:02 | 49.12031 | 6.62640 | 36798 ft | 472 kts | 158° |
| 2026-05-06 12:03 | 49.05990 | 6.66697 | 36801 ft | 474 kts | 159° |
| 2026-05-06 12:03 | 48.99980 | 6.70724 | 36796 ft | 474 kts | 159° |
| 2026-05-06 12:04 | 48.94027 | 6.75024 | 36793 ft | 476 kts | 154° |
| 2026-05-06 12:04 | 48.88522 | 6.79709 | 36794 ft | 476 kts | 153° |
| 2026-05-06 12:05 | 48.82739 | 6.84632 | 36794 ft | 477 kts | 154° |
| 2026-05-06 12:05 | 48.76910 | 6.89454 | 36793 ft | 477 kts | 154° |
| 2026-05-06 12:06 | 48.71205 | 6.94102 | 36796 ft | 477 kts | 154° |
| 2026-05-06 12:06 | 48.65354 | 6.98849 | 36803 ft | 478 kts | 155° |
| 2026-05-06 12:07 | 48.59560 | 7.03541 | 36806 ft | 478 kts | 155° |
| 2026-05-06 12:07 | 48.53721 | 7.08261 | 36808 ft | 478 kts | 155° |
| 2026-05-06 12:08 | 48.47854 | 7.12991 | 36811 ft | 478 kts | 155° |
| 2026-05-06 12:08 | 48.41995 | 7.17704 | 36817 ft | 478 kts | 155° |
| 2026-05-06 12:09 | 48.36124 | 7.22414 | 36813 ft | 477 kts | 155° |
| 2026-05-06 12:09 | 48.30258 | 7.27106 | 36807 ft | 477 kts | 155° |
| 2026-05-06 12:10 | 48.24808 | 7.31453 | 36797 ft | 477 kts | 155° |
| 2026-05-06 12:10 | 48.18928 | 7.36133 | 36801 ft | 476 kts | 156° |
| 2026-05-06 12:11 | 48.13107 | 7.40758 | 36802 ft | 474 kts | 156° |
| 2026-05-06 12:11 | 48.07273 | 7.45378 | 36799 ft | 474 kts | 156° |
| 2026-05-06 12:12 | 48.01448 | 7.49977 | 36809 ft | 474 kts | 156° |
| 2026-05-06 12:12 | 47.95711 | 7.54832 | 36835 ft | 477 kts | 149° |
| 2026-05-06 12:13 | 47.91556 | 7.60404 | 36836 ft | 485 kts | 134° |
| 2026-05-06 12:13 | 47.88075 | 7.69038 | 36851 ft | 497 kts | 117° |
| 2026-05-06 12:14 | 47.85565 | 7.78654 | 36849 ft | 500 kts | 115° |
| 2026-05-06 12:14 | 47.83163 | 7.88422 | 36847 ft | 500 kts | 115° |
| 2026-05-06 12:15 | 47.80743 | 7.98094 | 36844 ft | 499 kts | 115° |
| 2026-05-06 12:15 | 47.78276 | 8.07746 | 36844 ft | 499 kts | 115° |
| 2026-05-06 12:16 | 47.75802 | 8.17340 | 36842 ft | 499 kts | 116° |
| 2026-05-06 12:16 | 47.73303 | 8.26987 | 36842 ft | 499 kts | 116° |
| 2026-05-06 12:17 | 47.70813 | 8.36568 | 36841 ft | 499 kts | 116° |
| 2026-05-06 12:17 | 47.67766 | 8.45637 | 36823 ft | 490 kts | 130° |
| 2026-05-06 12:18 | 47.63700 | 8.53717 | 36825 ft | 488 kts | 133° |
| 2026-05-06 12:18 | 47.59459 | 8.61608 | 36826 ft | 488 kts | 133° |
| 2026-05-06 12:19 | 47.55212 | 8.69446 | 36824 ft | 488 kts | 133° |
| 2026-05-06 12:19 | 47.50997 | 8.77257 | 36842 ft | 488 kts | 133° |
| 2026-05-06 12:20 | 47.46760 | 8.85115 | 36833 ft | 489 kts | 133° |
| 2026-05-06 12:20 | 47.42511 | 8.92980 | 36835 ft | 491 kts | 133° |
| 2026-05-06 12:21 | 47.38227 | 9.00887 | 36838 ft | 492 kts | 133° |
| 2026-05-06 12:21 | 47.33948 | 9.08755 | 36844 ft | 492 kts | 134° |
| 2026-05-06 12:22 | 47.29675 | 9.16593 | 36826 ft | 492 kts | 134° |
| 2026-05-06 12:22 | 47.25408 | 9.24398 | 36844 ft | 490 kts | 134° |
| 2026-05-06 12:23 | 47.21130 | 9.32214 | 36820 ft | 491 kts | 134° |
| 2026-05-06 12:23 | 47.16841 | 9.40016 | 36818 ft | 490 kts | 134° |
| 2026-05-06 12:24 | 47.12533 | 9.47819 | 36802 ft | 491 kts | 134° |
| 2026-05-06 12:24 | 47.08231 | 9.55588 | 36795 ft | 490 kts | 135° |
| 2026-05-06 12:25 | 47.03930 | 9.63346 | 36790 ft | 490 kts | 134° |
| 2026-05-06 12:25 | 46.99657 | 9.71027 | 36786 ft | 489 kts | 135° |
| 2026-05-06 12:26 | 46.95342 | 9.78758 | 36784 ft | 489 kts | 135° |
| 2026-05-06 12:26 | 46.91056 | 9.86416 | 36772 ft | 489 kts | 135° |
| 2026-05-06 12:27 | 46.86717 | 9.94154 | 36809 ft | 489 kts | 135° |
| 2026-05-06 12:27 | 46.82602 | 10.01471 | 36827 ft | 489 kts | 135° |
| 2026-05-06 12:28 | 46.78281 | 10.09132 | 36822 ft | 490 kts | 135° |
| 2026-05-06 12:28 | 46.73938 | 10.16810 | 36845 ft | 491 kts | 135° |
| 2026-05-06 12:29 | 46.69603 | 10.24468 | 36844 ft | 492 kts | 135° |
| 2026-05-06 12:29 | 46.65233 | 10.32152 | 36851 ft | 493 kts | 135° |
| 2026-05-06 12:30 | 46.60848 | 10.39833 | 36849 ft | 493 kts | 135° |
| 2026-05-06 12:30 | 46.56403 | 10.47430 | 36859 ft | 490 kts | 140° |
| 2026-05-06 12:31 | 46.51523 | 10.54185 | 36815 ft | 486 kts | 143° |
| 2026-05-06 12:31 | 46.46627 | 10.60656 | 36862 ft | 485 kts | 144° |
| 2026-05-06 12:32 | 46.41644 | 10.67178 | 36879 ft | 483 kts | 144° |
| 2026-05-06 12:32 | 46.36648 | 10.73716 | 36905 ft | 483 kts | 144° |
| 2026-05-06 12:33 | 46.31671 | 10.80228 | 36923 ft | 483 kts | 144° |
| 2026-05-06 12:33 | 46.26702 | 10.86721 | 36923 ft | 483 kts | 144° |
| 2026-05-06 12:34 | 46.21715 | 10.93219 | 36945 ft | 483 kts | 144° |
| 2026-05-06 12:34 | 46.16715 | 10.99716 | 36945 ft | 483 kts | 144° |
| 2026-05-06 12:35 | 46.11715 | 11.06196 | 36933 ft | 482 kts | 144° |